首页
METAR-TAF:

METAR-TAF

机场 :

Eppley Airfield

奥马哈, 內布拉斯加州, 美国

纬度: 41-18-37N, 经度: 095-53-57W, 海拔: 299米

当前天气观测

该预报发布于24分钟前的14:52 UTC
风速14节,风向
温度 28°C
湿度 66%
气压 1009 hPa
能見度: 16.1公里
少量云层高于15000英尺
少量云层高于25000英尺

METAR: KOMA 241452Z 17014KT 10SM FEW150 FEW250 28/21 A2980 RMK AO2 SLP079 T02830211 58009

时间: 10:16 (15:16 UTC)

预报

该预报发布于3小时和56分钟前的11:20 UTC
预报有效从24日的 12点(UTC)到 25日的 12点(UTC)
风速10节,风向南转南东
能見度: 10公里
少量云层高于12000英尺
从 24日的 1500点(UTC)
风速18节,风向,有时为26节阵风
能見度: 10公里
散云层高于15000英尺
从 25日的 0100点(UTC)
风速12节,风向
能見度: 10公里
多云层高于25000英尺

TAF: KOMA 241120Z 2412/2512 16010KT P6SM FEW120 WS019/23037KT FM241500 18018G26KT P6SM SCT150 FM250100 18012KT P6SM BKN250

超过4000个机场的气象观测和天气预报(METAR&TAF报告)。

可查询的气象台以黄色和红色小点在地图上表示。

将鼠标移到小点上方,可查看气象台名称。

然后点击查看天气观测和预报。

如需切换地图:点击带黑十字的绿色按钮放大地图;点击带横线的绿色按钮缩小地图;或者点击绿色箭头查看邻近地区的地图。


METAR-TAF: